KCKM/CKM METAR and TAF weather

Enter ICAO airport designator
Station Type Date Time Source
KCKM METAR 2019/02/17 07:55 UTC NOAA

KCKM 170755Z AUTO 12005KT 7SM BKN006 OVC018 07/07 A2974 RMK A01 P0003


Station Type Date Time Source
KCKM Decoded METAR 2019/02/17 07:55 UTC NOAA

Station name not available
Feb 17, 2019 - 02:55 AM EST / 2019.02.17 0755 UTC
Wind: from the ESE (120 degrees) at 6 MPH (5 KT):0
Visibility: 7 mile(s):0
Sky conditions: overcast
Precipitation last hour: 0.03 inches
Temperature: 44 F (7 C)
Dew Point: 44 F (7 C)
Relative Humidity: 100%
Pressure (altimeter): 29.74 in. Hg (1007 hPa)
ob: KCKM 170755Z AUTO 12005KT 7SM BKN006 OVC018 07/07 A2974 RMK A01 P0003
cycle: 8

Station Type Date Time Source
KCKM TAF UTC NOAA

Error!


Example: see airport list